createdAt,value
2023-01-17T00:02:01.095Z,32.42
2023-01-17T00:04:47.321Z,31.08
2023-01-17T00:07:34.695Z,32.00
2023-01-17T00:10:07.506Z,27.15
2023-01-17T00:12:34.989Z,28.40
2023-01-17T00:15:02.229Z,29.85
2023-01-17T00:17:30.380Z,29.92
2023-01-17T00:20:15.969Z,29.42
2023-01-17T00:23:02.671Z,26.98
2023-01-17T00:25:51.476Z,18.80
2023-01-17T00:28:18.979Z,28.00
2023-01-17T00:30:46.355Z,27.20
2023-01-17T00:33:13.606Z,27.42
2023-01-17T00:35:41.120Z,28.85
2023-01-17T00:38:16.293Z,29.85
2023-01-17T00:40:44.519Z,27.63
2023-01-17T00:43:31.793Z,27.52
2023-01-17T00:46:17.923Z,27.73
2023-01-17T00:49:04.032Z,27.83
2023-01-17T00:51:51.919Z,29.17
2023-01-17T00:54:37.434Z,27.65
2023-01-17T00:57:23.636Z,29.45
2023-01-17T01:00:09.458Z,27.45
2023-01-17T01:02:55.638Z,27.05
2023-01-17T01:05:41.909Z,28.55
2023-01-17T01:08:53.134Z,28.65
2023-01-17T01:11:39.377Z,28.13
2023-01-17T01:14:26.742Z,28.08
2023-01-17T01:17:12.118Z,26.45
2023-01-17T01:19:57.757Z,28.92
2023-01-17T01:22:43.330Z,29.10
2023-01-17T01:25:28.896Z,28.00
2023-01-17T01:28:31.025Z,28.35
2023-01-17T01:31:20.837Z,29.98
2023-01-17T01:33:48.037Z,28.13
2023-01-17T01:36:14.953Z,29.08
2023-01-17T01:38:42.151Z,28.27
2023-01-17T01:41:09.151Z,29.52
2023-01-17T01:43:48.086Z,30.35
2023-01-17T01:46:35.636Z,29.60
2023-01-17T01:49:06.719Z,31.42
2023-01-17T01:51:35.677Z,30.38
2023-01-17T01:54:08.004Z,29.80
2023-01-17T01:56:35.215Z,29.83
2023-01-17T01:59:04.497Z,28.30
2023-01-17T02:01:35.755Z,28.65
2023-01-17T02:04:03.431Z,29.85
2023-01-17T02:06:31.803Z,27.00
2023-01-17T02:09:02.102Z,27.58
2023-01-17T02:11:29.102Z,25.88
2023-01-17T02:13:56.119Z,28.10
2023-01-17T02:16:29.071Z,26.92
2023-01-17T02:19:22.314Z,27.63
2023-01-17T02:21:55.171Z,28.92
2023-01-17T02:24:59.233Z,28.30
2023-01-17T02:27:28.936Z,28.70
2023-01-17T02:30:20.935Z,27.52
2023-01-17T02:35:36.934Z,26.55
2023-01-17T02:38:18.857Z,25.98
2023-01-17T02:43:16.296Z,24.42
2023-01-17T02:45:43.730Z,24.45
2023-01-17T02:48:12.382Z,24.85
2023-01-17T02:50:49.636Z,24.55
2023-01-17T02:53:35.158Z,23.83
2023-01-17T02:56:26.783Z,23.40
2023-01-17T02:59:05.841Z,23.65
2023-01-17T03:02:03.001Z,22.70
2023-01-17T03:04:48.816Z,23.13
2023-01-17T03:07:19.761Z,23.55
2023-01-17T03:09:49.062Z,23.43
2023-01-17T03:12:15.995Z,22.20
2023-01-17T03:14:42.992Z,21.33
2023-01-17T03:17:09.894Z,23.17
2023-01-17T03:19:36.965Z,23.63
2023-01-17T03:22:03.921Z,22.55
2023-01-17T03:24:30.956Z,21.75
2023-01-17T03:26:57.938Z,22.35
2023-01-17T03:29:24.899Z,20.85
2023-01-17T03:31:51.774Z,18.85
2023-01-17T03:34:18.754Z,20.33
2023-01-17T03:36:45.682Z,18.13
2023-01-17T03:39:12.736Z,20.13
2023-01-17T03:41:39.871Z,17.48
2023-01-17T03:44:06.844Z,21.08
2023-01-17T03:46:33.917Z,21.27
2023-01-17T03:49:00.779Z,21.85
2023-01-17T03:51:27.956Z,19.15
2023-01-17T03:53:54.855Z,19.95
2023-01-17T03:56:21.987Z,20.05
2023-01-17T03:58:49.112Z,20.05
2023-01-17T04:01:16.247Z,19.70
2023-01-17T04:03:43.235Z,18.92
2023-01-17T04:06:10.233Z,18.27
2023-01-17T04:08:37.079Z,19.00
2023-01-17T04:11:04.371Z,19.27
2023-01-17T04:13:31.280Z,19.38
2023-01-17T04:15:59.604Z,17.70
2023-01-17T04:18:26.648Z,19.33
2023-01-17T04:20:53.731Z,19.75
2023-01-17T04:23:20.655Z,19.35
2023-01-17T04:25:47.784Z,18.27
2023-01-17T04:28:14.879Z,16.88
2023-01-17T04:30:41.847Z,16.83
2023-01-17T04:33:08.763Z,16.77
2023-01-17T04:35:36.174Z,18.58
2023-01-17T04:38:03.567Z,18.50
2023-01-17T04:40:30.506Z,15.63
2023-01-17T04:42:58.184Z,17.65
2023-01-17T04:45:25.356Z,17.88
2023-01-17T04:47:52.243Z,18.83
2023-01-17T04:50:19.381Z,19.27
2023-01-17T04:52:46.391Z,18.58
2023-01-17T04:55:13.394Z,18.77
2023-01-17T04:57:40.273Z,19.52
2023-01-17T05:00:10.575Z,19.13
2023-01-17T05:02:37.762Z,21.08
2023-01-17T05:05:05.278Z,17.75
2023-01-17T05:07:32.846Z,21.13
2023-01-17T05:10:01.043Z,19.90
2023-01-17T05:12:28.436Z,18.42
2023-01-17T05:14:55.631Z,19.88
2023-01-17T05:17:22.731Z,21.67
2023-01-17T05:19:49.911Z,22.92
2023-01-17T05:22:17.012Z,23.85
2023-01-17T05:24:45.099Z,22.58
2023-01-17T05:27:13.080Z,22.73
2023-01-17T05:29:40.381Z,22.02
2023-01-17T05:32:07.442Z,21.85
2023-01-17T05:34:35.232Z,21.25
2023-01-17T05:37:02.275Z,22.75
2023-01-17T05:39:31.111Z,24.02
2023-01-17T05:41:59.633Z,22.73
2023-01-17T05:44:27.830Z,23.40
2023-01-17T05:46:55.834Z,24.90
2023-01-17T05:49:22.938Z,26.08
2023-01-17T05:51:50.117Z,27.50
2023-01-17T05:54:17.517Z,28.08
2023-01-17T05:56:44.818Z,28.05
2023-01-17T05:59:14.098Z,31.25
2023-01-17T06:01:41.342Z,33.25
2023-01-17T06:04:08.425Z,30.23
2023-01-17T06:06:35.474Z,28.05
2023-01-17T06:09:02.493Z,27.17
2023-01-17T06:11:29.445Z,25.15
2023-01-17T06:13:56.389Z,23.88
2023-01-17T06:16:23.409Z,21.88
2023-01-17T06:18:51.296Z,22.30
2023-01-17T06:21:18.689Z,22.58
2023-01-17T06:23:45.599Z,22.70
2023-01-17T06:26:12.562Z,22.00
2023-01-17T06:28:39.439Z,21.55
2023-01-17T06:31:09.684Z,22.00
2023-01-17T06:33:36.772Z,23.17
2023-01-17T06:36:03.987Z,23.67
2023-01-17T06:38:31.317Z,23.75
2023-01-17T06:41:00.489Z,24.52
2023-01-17T06:43:32.622Z,24.58
2023-01-17T06:46:00.901Z,25.25
2023-01-17T06:48:28.204Z,25.27
2023-01-17T06:50:55.242Z,25.52
2023-01-17T06:53:22.339Z,26.00
2023-01-17T06:55:49.349Z,25.70
2023-01-17T06:58:16.435Z,28.52
2023-01-17T07:00:44.194Z,27.30
2023-01-17T07:03:19.028Z,26.55
2023-01-17T07:05:46.191Z,27.83
2023-01-17T07:08:13.213Z,27.58
2023-01-17T07:10:40.298Z,29.98
2023-01-17T07:13:07.254Z,29.75
2023-01-17T07:15:34.330Z,28.42
2023-01-17T07:18:02.274Z,27.85
2023-01-17T07:20:29.416Z,29.60
2023-01-17T07:22:56.457Z,27.85
2023-01-17T07:25:23.543Z,28.15
2023-01-17T07:27:53.950Z,29.65
2023-01-17T07:30:21.774Z,29.52
2023-01-17T07:32:53.364Z,31.58
2023-01-17T07:35:20.540Z,29.20
2023-01-17T07:37:49.414Z,30.88
2023-01-17T07:40:17.713Z,29.98
2023-01-17T07:42:45.101Z,31.05
2023-01-17T07:45:13.844Z,32.53
2023-01-17T07:47:40.875Z,31.80
2023-01-17T07:50:09.603Z,32.00
2023-01-17T07:52:36.761Z,34.42
2023-01-17T07:55:04.890Z,34.28
2023-01-17T07:57:32.884Z,31.92
2023-01-17T08:00:00.081Z,33.80
2023-01-17T08:02:27.166Z,35.35
2023-01-17T08:04:54.236Z,34.20
2023-01-17T08:07:21.303Z,34.88
2023-01-17T08:09:50.263Z,33.42
2023-01-17T08:12:17.983Z,38.42
2023-01-17T08:14:45.206Z,37.25
2023-01-17T08:17:14.809Z,35.17
2023-01-17T08:19:41.915Z,30.05
2023-01-17T08:22:09.315Z,35.85
2023-01-17T08:24:37.697Z,32.55
2023-01-17T08:27:04.751Z,36.10
2023-01-17T08:29:31.794Z,37.25
2023-01-17T08:31:58.756Z,38.65
2023-01-17T08:34:26.521Z,38.40
2023-01-17T08:36:54.382Z,34.97
2023-01-17T08:39:22.223Z,36.15
2023-01-17T08:41:49.321Z,35.30
2023-01-17T08:44:16.432Z,36.08
2023-01-17T08:46:44.353Z,35.03
2023-01-17T08:49:12.261Z,34.47
2023-01-17T08:51:40.067Z,31.80
2023-01-17T08:54:07.415Z,33.00
2023-01-17T08:56:35.359Z,31.20
2023-01-17T08:59:03.276Z,30.42
2023-01-17T09:01:30.869Z,33.53
2023-01-17T09:03:57.862Z,28.30
2023-01-17T09:06:24.879Z,32.30
2023-01-17T09:08:52.464Z,31.08
2023-01-17T09:11:19.579Z,32.58
2023-01-17T09:13:46.527Z,31.13
2023-01-17T09:16:13.662Z,29.88
2023-01-17T09:18:40.842Z,32.47
2023-01-17T09:21:12.831Z,34.10
2023-01-17T09:23:40.014Z,27.90
2023-01-17T09:26:07.312Z,28.67
2023-01-17T09:28:41.007Z,29.63
2023-01-17T09:31:08.731Z,28.00
2023-01-17T09:33:36.253Z,27.67
2023-01-17T09:36:05.551Z,28.25
2023-01-17T09:38:33.143Z,29.20
2023-01-17T09:41:01.811Z,27.67
2023-01-17T09:43:41.087Z,28.73
2023-01-17T09:46:15.204Z,29.70
2023-01-17T09:48:43.433Z,23.80
2023-01-17T09:51:16.312Z,27.70
2023-01-17T09:53:44.375Z,30.60
2023-01-17T09:56:16.561Z,25.95
2023-01-17T09:59:03.973Z,28.88
2023-01-17T10:01:41.082Z,30.75
2023-01-17T10:04:24.529Z,27.67
2023-01-17T10:07:20.116Z,28.30
2023-01-17T10:09:56.505Z,24.55
2023-01-17T10:12:59.474Z,23.52
2023-01-17T10:16:08.476Z,27.35
2023-01-17T10:18:38.272Z,25.17
2023-01-17T10:21:23.633Z,22.92
2023-01-17T10:24:13.871Z,22.85
2023-01-17T10:26:42.090Z,20.95
2023-01-17T10:29:15.134Z,21.35
2023-01-17T10:31:51.193Z,22.45
2023-01-17T10:34:42.084Z,23.77
2023-01-17T10:37:21.595Z,22.63
2023-01-17T10:39:50.045Z,23.05
2023-01-17T10:42:17.013Z,22.63
2023-01-17T10:44:49.731Z,22.88
2023-01-17T10:47:24.514Z,20.25
2023-01-17T10:49:56.678Z,22.60
2023-01-17T10:53:01.271Z,25.50
2023-01-17T10:55:44.159Z,25.08
2023-01-17T10:58:14.336Z,22.27
2023-01-17T11:00:47.016Z,23.02
2023-01-17T11:03:17.228Z,23.20
2023-01-17T11:05:44.470Z,21.67
2023-01-17T11:08:13.659Z,22.67
2023-01-17T11:10:46.613Z,22.65
2023-01-17T11:13:22.611Z,22.85
2023-01-17T11:15:52.344Z,21.67
2023-01-17T11:18:21.578Z,23.08
2023-01-17T11:20:49.638Z,22.15
2023-01-17T11:23:17.859Z,20.25
2023-01-17T11:25:50.672Z,20.48
2023-01-17T11:28:30.824Z,20.77
2023-01-17T11:31:04.392Z,19.60
2023-01-17T11:33:47.030Z,19.17
2023-01-17T11:36:22.243Z,19.60
2023-01-17T11:39:27.920Z,19.30
2023-01-17T11:41:54.968Z,19.70
2023-01-17T11:44:33.897Z,18.10
2023-01-17T11:47:12.759Z,32.50
2023-01-17T11:49:45.371Z,30.63
2023-01-17T11:52:24.390Z,18.55
2023-01-17T11:54:53.996Z,19.52
2023-01-17T11:57:31.734Z,18.48
2023-01-17T12:00:29.632Z,18.50
2023-01-17T12:03:15.429Z,17.20
2023-01-17T12:05:42.517Z,16.58
2023-01-17T12:08:28.252Z,17.17
2023-01-17T12:11:22.294Z,15.98
2023-01-17T12:14:07.758Z,15.45
2023-01-17T12:17:12.233Z,13.50
2023-01-17T12:20:04.946Z,15.35
2023-01-17T12:22:50.771Z,15.48
2023-01-17T12:26:02.714Z,16.63
2023-01-17T12:28:32.632Z,16.15
2023-01-17T12:31:27.152Z,14.52
2023-01-17T12:33:59.612Z,16.38
2023-01-17T12:36:40.814Z,17.02
2023-01-17T12:39:12.022Z,16.17
2023-01-17T12:42:04.410Z,17.08
2023-01-17T12:45:03.026Z,16.38
2023-01-17T12:47:33.492Z,16.67
2023-01-17T12:50:21.773Z,16.38
2023-01-17T12:53:07.670Z,15.93
2023-01-17T12:55:50.043Z,16.27
2023-01-17T12:58:31.291Z,41.47
2023-01-17T13:01:24.034Z,16.08
2023-01-17T13:04:09.572Z,15.98
2023-01-17T13:07:10.793Z,15.95
2023-01-17T13:09:46.082Z,14.80
2023-01-17T13:12:15.714Z,14.73
2023-01-17T13:14:42.815Z,13.90
2023-01-17T13:17:48.396Z,14.65
2023-01-17T13:20:32.058Z,14.15
2023-01-17T13:23:13.012Z,13.23
2023-01-17T13:25:50.715Z,13.55
2023-01-17T13:28:42.109Z,14.00
2023-01-17T13:31:52.481Z,12.80
2023-01-17T13:34:35.059Z,12.93
2023-01-17T13:37:20.513Z,13.48
2023-01-17T13:40:09.305Z,13.27
2023-01-17T13:42:42.314Z,12.23
2023-01-17T13:45:18.756Z,13.57
2023-01-17T13:47:45.890Z,11.43
2023-01-17T13:50:31.332Z,11.32
2023-01-17T13:53:05.963Z,11.80
2023-01-17T13:55:47.862Z,12.93
2023-01-17T14:00:55.179Z,12.00
2023-01-17T14:03:51.755Z,10.95
2023-01-17T14:06:40.719Z,11.70
2023-01-17T14:09:26.674Z,12.43
2023-01-17T14:12:19.632Z,12.60
2023-01-17T14:14:52.497Z,11.93
2023-01-17T14:17:23.200Z,11.40
2023-01-17T14:19:52.717Z,9.98
2023-01-17T14:22:19.700Z,10.20
2023-01-17T14:25:11.838Z,10.88
2023-01-17T14:30:22.516Z,8.88
2023-01-17T14:33:01.682Z,9.88
2023-01-17T14:35:32.421Z,9.23
2023-01-17T14:38:05.489Z,9.98
2023-01-17T14:40:35.041Z,9.43
2023-01-17T14:43:44.228Z,10.52
2023-01-17T14:46:32.451Z,9.45
2023-01-17T14:49:06.277Z,8.00
2023-01-17T14:51:35.576Z,10.73
2023-01-17T14:54:08.633Z,9.60
2023-01-17T14:56:35.896Z,8.70
2023-01-17T14:59:22.221Z,9.13
2023-01-17T15:02:06.598Z,9.57
2023-01-17T15:04:39.747Z,8.70
2023-01-17T15:07:07.964Z,9.93
2023-01-17T15:09:37.258Z,12.98
2023-01-17T15:12:05.150Z,13.77
2023-01-17T15:14:38.819Z,12.32
2023-01-17T15:17:26.763Z,12.73
2023-01-17T15:20:01.891Z,8.35
2023-01-17T15:22:29.910Z,9.65
2023-01-17T15:24:57.073Z,8.93
2023-01-17T15:27:25.148Z,11.52
2023-01-17T15:29:52.497Z,9.68
2023-01-17T15:32:22.838Z,7.03
2023-01-17T15:34:51.874Z,6.97
2023-01-17T15:37:39.190Z,6.15
2023-01-17T15:40:12.455Z,5.28
2023-01-17T15:42:42.933Z,5.53
2023-01-17T15:45:17.215Z,7.32
2023-01-17T15:47:44.348Z,6.10
2023-01-17T15:50:30.372Z,7.75
2023-01-17T15:53:03.109Z,8.95
2023-01-17T15:55:36.695Z,8.70
2023-01-17T15:58:05.411Z,10.10
2023-01-17T16:00:42.123Z,6.07
2023-01-17T16:03:32.032Z,7.45
2023-01-17T16:06:01.241Z,11.68
2023-01-17T16:08:29.540Z,10.82
2023-01-17T16:11:02.328Z,8.95
2023-01-17T16:13:31.669Z,12.35
2023-01-17T16:16:24.015Z,5.85
2023-01-17T16:18:58.125Z,11.27
2023-01-17T16:21:27.619Z,7.85
2023-01-17T16:23:54.927Z,7.25
2023-01-17T16:26:22.493Z,4.80
2023-01-17T16:28:49.811Z,4.72
2023-01-17T16:31:18.183Z,5.68
2023-01-17T16:33:46.222Z,5.93
2023-01-17T16:36:15.255Z,5.72
2023-01-17T16:38:44.237Z,5.82
2023-01-17T16:41:11.386Z,5.78
2023-01-17T16:43:38.704Z,7.43
2023-01-17T16:46:06.187Z,7.38
2023-01-17T16:48:33.331Z,6.20
2023-01-17T16:51:06.080Z,6.78
2023-01-17T16:53:33.122Z,5.03
2023-01-17T16:56:07.236Z,6.07
2023-01-17T16:58:34.203Z,6.38
2023-01-17T17:01:01.212Z,5.45
2023-01-17T17:03:28.331Z,6.88
2023-01-17T17:05:57.331Z,8.02
2023-01-17T17:08:24.467Z,6.82
2023-01-17T17:10:51.482Z,6.45
2023-01-17T17:13:18.544Z,6.57
2023-01-17T17:15:45.590Z,6.57
2023-01-17T17:18:18.072Z,9.38
2023-01-17T17:20:45.521Z,18.33
2023-01-17T17:23:12.681Z,10.27
2023-01-17T17:25:39.755Z,10.07
2023-01-17T17:28:06.950Z,10.18
2023-01-17T17:30:34.719Z,7.78
2023-01-17T17:33:04.612Z,7.38
2023-01-17T17:35:34.527Z,7.00
2023-01-17T17:38:01.555Z,4.80
2023-01-17T17:40:29.699Z,4.72
2023-01-17T17:42:56.670Z,4.80
2023-01-17T17:45:23.722Z,4.72
2023-01-17T17:47:54.544Z,4.97
2023-01-17T17:50:21.792Z,5.00
2023-01-17T17:52:48.746Z,4.80
2023-01-17T17:55:19.122Z,4.68
2023-01-17T17:57:46.415Z,5.72
2023-01-17T18:00:13.784Z,6.18
2023-01-17T18:02:40.740Z,6.80
2023-01-17T18:05:08.317Z,6.85
2023-01-17T18:07:35.511Z,5.82
2023-01-17T18:10:03.818Z,6.18
2023-01-17T18:12:30.725Z,5.18
2023-01-17T18:14:57.635Z,4.90
2023-01-17T18:17:24.635Z,4.60
2023-01-17T18:19:52.801Z,5.32
2023-01-17T18:22:19.998Z,4.80
2023-01-17T18:24:46.855Z,4.40
2023-01-17T18:27:14.133Z,3.80
2023-01-17T18:29:41.170Z,4.18
2023-01-17T18:32:08.240Z,4.43
2023-01-17T18:34:35.976Z,4.10
2023-01-17T18:37:03.153Z,4.38
2023-01-17T18:39:30.627Z,4.72
2023-01-17T18:42:01.415Z,4.32
2023-01-17T18:44:29.990Z,5.47
2023-01-17T18:47:04.738Z,5.10
2023-01-17T18:49:33.793Z,5.15
2023-01-17T18:52:01.733Z,6.90
2023-01-17T18:54:30.111Z,8.20
2023-01-17T18:56:58.313Z,7.20
2023-01-17T18:59:26.335Z,5.90
2023-01-17T19:01:53.782Z,6.20
2023-01-17T19:04:24.467Z,5.72
2023-01-17T19:09:23.010Z,4.85
2023-01-17T19:11:51.378Z,4.88
2023-01-17T19:14:18.492Z,4.72
2023-01-17T19:16:45.689Z,4.20
2023-01-17T19:19:14.853Z,5.95
2023-01-17T19:21:42.360Z,6.88
2023-01-17T19:24:10.843Z,7.10
2023-01-17T19:26:38.118Z,7.22
2023-01-17T19:29:06.912Z,5.30
2023-01-17T19:31:39.739Z,4.90
2023-01-17T19:34:06.876Z,3.97
2023-01-17T19:36:35.669Z,4.80
2023-01-17T19:39:06.202Z,3.47
2023-01-17T19:41:35.403Z,4.70
2023-01-17T19:44:07.321Z,5.55
2023-01-17T19:46:35.387Z,4.20
2023-01-17T19:49:03.196Z,4.43
2023-01-17T19:51:31.084Z,4.50
2023-01-17T19:54:04.369Z,4.90
2023-01-17T19:56:32.151Z,5.50
2023-01-17T19:59:02.088Z,6.57
2023-01-17T20:01:34.529Z,6.35
2023-01-17T20:04:02.853Z,5.75
2023-01-17T20:06:32.504Z,6.00
2023-01-17T20:09:00.103Z,5.47
2023-01-17T20:11:28.954Z,5.00
2023-01-17T20:13:57.855Z,5.35
2023-01-17T20:16:28.459Z,4.70
2023-01-17T20:18:56.207Z,4.63
2023-01-17T20:21:26.193Z,5.15
2023-01-17T20:23:54.721Z,4.45
2023-01-17T20:26:42.359Z,4.63
2023-01-17T20:29:17.451Z,4.63
2023-01-17T20:31:47.074Z,4.43
2023-01-17T20:34:19.824Z,4.28
2023-01-17T20:36:48.215Z,4.20
2023-01-17T20:39:16.093Z,4.32
2023-01-17T20:41:44.022Z,4.40
2023-01-17T20:44:14.903Z,4.80
2023-01-17T20:46:42.235Z,4.45
2023-01-17T20:49:18.907Z,5.38
2023-01-17T20:51:47.747Z,5.50
2023-01-17T20:54:18.025Z,6.07
2023-01-17T20:56:47.670Z,6.97
2023-01-17T20:59:17.931Z,7.00
2023-01-17T21:01:46.084Z,7.55
2023-01-17T21:04:16.263Z,6.57
2023-01-17T21:06:44.476Z,5.85
2023-01-17T21:09:14.443Z,5.63
2023-01-17T21:11:41.648Z,5.68
2023-01-17T21:14:08.772Z,7.05
2023-01-17T21:16:35.915Z,7.05
2023-01-17T21:19:03.533Z,7.25
2023-01-17T21:21:30.588Z,8.68
2023-01-17T21:23:59.420Z,6.65
2023-01-17T21:26:27.919Z,8.57
2023-01-17T21:28:55.894Z,8.82
2023-01-17T21:31:35.727Z,7.20
2023-01-17T21:34:05.053Z,7.20
2023-01-17T21:36:35.360Z,7.22
2023-01-17T21:39:05.078Z,6.57
2023-01-17T21:41:34.777Z,7.35
2023-01-17T21:44:04.182Z,7.40
2023-01-17T21:46:31.401Z,6.80
2023-01-17T21:48:58.372Z,6.55
2023-01-17T21:51:46.094Z,8.93
2023-01-17T21:54:13.053Z,7.82
2023-01-17T21:56:58.669Z,7.65
2023-01-17T21:59:25.739Z,7.53
2023-01-17T22:01:52.702Z,7.25
2023-01-17T22:04:20.274Z,7.50
2023-01-17T22:06:47.436Z,6.40
2023-01-17T22:09:15.298Z,7.40
2023-01-17T22:11:42.407Z,6.65
2023-01-17T22:14:09.599Z,8.32
2023-01-17T22:16:36.616Z,7.85
2023-01-17T22:19:03.653Z,7.50
2023-01-17T22:21:30.834Z,8.25
2023-01-17T22:23:59.602Z,7.55
2023-01-17T22:26:29.235Z,8.15
2023-01-17T22:28:56.670Z,8.75
2023-01-17T22:31:26.428Z,9.02
2023-01-17T22:34:04.391Z,10.70
2023-01-17T22:36:34.760Z,11.10
2023-01-17T22:39:01.941Z,11.27
2023-01-17T22:41:30.198Z,10.70
2023-01-17T22:43:58.984Z,10.10
2023-01-17T22:46:27.679Z,11.32
2023-01-17T22:48:55.967Z,13.52
2023-01-17T22:51:24.812Z,11.48
2023-01-17T22:53:54.173Z,9.52
2023-01-17T22:56:31.598Z,9.02
2023-01-17T22:59:00.975Z,9.77
2023-01-17T23:01:30.727Z,8.60
2023-01-17T23:03:59.631Z,9.52
2023-01-17T23:06:37.563Z,8.95
2023-01-17T23:09:15.710Z,7.53
2023-01-17T23:11:49.897Z,7.90
2023-01-17T23:14:22.241Z,8.70
2023-01-17T23:17:21.937Z,7.90
2023-01-17T23:19:51.237Z,7.78
2023-01-17T23:22:27.229Z,8.23
2023-01-17T23:24:55.631Z,7.80
2023-01-17T23:28:01.707Z,7.75
2023-01-17T23:30:39.325Z,6.97
2023-01-17T23:33:08.974Z,7.60
2023-01-17T23:35:42.203Z,7.65
2023-01-17T23:38:35.451Z,7.85
2023-01-17T23:41:25.904Z,7.80
2023-01-17T23:43:54.835Z,7.53
2023-01-17T23:46:22.728Z,7.25
2023-01-17T23:48:49.849Z,7.47
2023-01-17T23:51:17.242Z,7.00
2023-01-17T23:53:44.294Z,6.72
2023-01-17T23:56:17.294Z,7.68
2023-01-17T23:58:44.492Z,7.45
